sensor_id;sensor_type;location;lat;lon;timestamp;P1;durP1;ratioP1;P2;durP2;ratioP2
11328;SDS011;5719;42.714;23.732;2023-12-20T00:00:05;40.30;;;16.75;;
11328;SDS011;5719;42.714;23.732;2023-12-20T00:02:34;37.92;;;17.05;;
11328;SDS011;5719;42.714;23.732;2023-12-20T00:05:01;42.45;;;15.63;;
11328;SDS011;5719;42.714;23.732;2023-12-20T00:07:29;34.30;;;14.57;;
11328;SDS011;5719;42.714;23.732;2023-12-20T00:09:56;31.80;;;13.05;;
11328;SDS011;5719;42.714;23.732;2023-12-20T00:12:22;30.45;;;15.13;;
11328;SDS011;5719;42.714;23.732;2023-12-20T00:14:49;34.33;;;15.02;;
11328;SDS011;5719;42.714;23.732;2023-12-20T00:17:16;32.25;;;14.23;;
11328;SDS011;5719;42.714;23.732;2023-12-20T00:19:44;40.33;;;15.55;;
11328;SDS011;5719;42.714;23.732;2023-12-20T00:22:11;37.25;;;16.33;;
11328;SDS011;5719;42.714;23.732;2023-12-20T00:24:37;31.33;;;14.52;;
11328;SDS011;5719;42.714;23.732;2023-12-20T00:27:04;39.50;;;16.70;;
11328;SDS011;5719;42.714;23.732;2023-12-20T00:29:31;34.80;;;15.77;;
11328;SDS011;5719;42.714;23.732;2023-12-20T00:31:58;31.58;;;14.75;;
11328;SDS011;5719;42.714;23.732;2023-12-20T00:34:25;36.53;;;14.88;;
11328;SDS011;5719;42.714;23.732;2023-12-20T00:36:53;31.23;;;14.82;;
11328;SDS011;5719;42.714;23.732;2023-12-20T00:39:20;34.30;;;12.98;;
11328;SDS011;5719;42.714;23.732;2023-12-20T00:41:46;30.08;;;13.27;;
11328;SDS011;5719;42.714;23.732;2023-12-20T00:44:13;35.35;;;13.93;;
11328;SDS011;5719;42.714;23.732;2023-12-20T00:46:40;52.10;;;16.73;;
11328;SDS011;5719;42.714;23.732;2023-12-20T00:49:07;35.42;;;15.25;;
11328;SDS011;5719;42.714;23.732;2023-12-20T00:51:33;49.65;;;19.45;;
11328;SDS011;5719;42.714;23.732;2023-12-20T00:54:02;85.63;;;23.52;;
11328;SDS011;5719;42.714;23.732;2023-12-20T00:56:28;70.18;;;23.15;;
11328;SDS011;5719;42.714;23.732;2023-12-20T00:58:55;71.78;;;22.77;;
11328;SDS011;5719;42.714;23.732;2023-12-20T01:01:22;75.15;;;23.45;;
11328;SDS011;5719;42.714;23.732;2023-12-20T01:03:49;89.95;;;27.33;;
11328;SDS011;5719;42.714;23.732;2023-12-20T01:06:16;74.15;;;26.15;;
11328;SDS011;5719;42.714;23.732;2023-12-20T01:08:43;63.05;;;22.95;;
11328;SDS011;5719;42.714;23.732;2023-12-20T01:11:11;56.00;;;20.73;;
11328;SDS011;5719;42.714;23.732;2023-12-20T01:13:38;60.15;;;20.42;;
11328;SDS011;5719;42.714;23.732;2023-12-20T01:16:05;36.88;;;16.92;;
11328;SDS011;5719;42.714;23.732;2023-12-20T01:18:32;37.83;;;16.48;;
11328;SDS011;5719;42.714;23.732;2023-12-20T01:21:01;30.40;;;14.07;;
11328;SDS011;5719;42.714;23.732;2023-12-20T01:23:28;37.00;;;14.50;;
11328;SDS011;5719;42.714;23.732;2023-12-20T01:25:55;28.10;;;13.70;;
11328;SDS011;5719;42.714;23.732;2023-12-20T01:28:23;37.25;;;15.02;;
11328;SDS011;5719;42.714;23.732;2023-12-20T01:30:49;36.83;;;14.27;;
11328;SDS011;5719;42.714;23.732;2023-12-20T01:33:16;33.30;;;14.45;;
11328;SDS011;5719;42.714;23.732;2023-12-20T01:35:43;30.08;;;13.98;;
11328;SDS011;5719;42.714;23.732;2023-12-20T01:38:10;28.00;;;12.63;;
11328;SDS011;5719;42.714;23.732;2023-12-20T01:40:36;31.10;;;13.32;;
11328;SDS011;5719;42.714;23.732;2023-12-20T01:43:06;30.83;;;12.57;;
11328;SDS011;5719;42.714;23.732;2023-12-20T01:45:36;30.45;;;13.77;;
11328;SDS011;5719;42.714;23.732;2023-12-20T01:48:03;34.75;;;12.82;;
11328;SDS011;5719;42.714;23.732;2023-12-20T01:50:32;32.13;;;13.60;;
11328;SDS011;5719;42.714;23.732;2023-12-20T01:53:03;34.45;;;13.20;;
11328;SDS011;5719;42.714;23.732;2023-12-20T01:55:32;27.85;;;13.23;;
11328;SDS011;5719;42.714;23.732;2023-12-20T01:58:01;25.48;;;12.38;;
11328;SDS011;5719;42.714;23.732;2023-12-20T02:00:28;37.17;;;13.07;;
11328;SDS011;5719;42.714;23.732;2023-12-20T02:02:58;33.50;;;14.05;;
11328;SDS011;5719;42.714;23.732;2023-12-20T02:05:27;37.67;;;14.05;;
11328;SDS011;5719;42.714;23.732;2023-12-20T02:07:55;36.10;;;13.77;;
11328;SDS011;5719;42.714;23.732;2023-12-20T02:10:21;33.72;;;14.02;;
11328;SDS011;5719;42.714;23.732;2023-12-20T02:12:48;33.92;;;13.88;;
11328;SDS011;5719;42.714;23.732;2023-12-20T02:15:15;31.95;;;13.15;;
11328;SDS011;5719;42.714;23.732;2023-12-20T02:17:42;30.98;;;13.27;;
11328;SDS011;5719;42.714;23.732;2023-12-20T02:20:11;29.83;;;11.82;;
11328;SDS011;5719;42.714;23.732;2023-12-20T02:22:40;33.53;;;12.63;;
11328;SDS011;5719;42.714;23.732;2023-12-20T02:25:06;27.95;;;12.60;;
11328;SDS011;5719;42.714;23.732;2023-12-20T02:27:34;35.53;;;13.75;;
11328;SDS011;5719;42.714;23.732;2023-12-20T02:30:01;30.38;;;13.75;;
11328;SDS011;5719;42.714;23.732;2023-12-20T02:32:28;26.38;;;13.02;;
11328;SDS011;5719;42.714;23.732;2023-12-20T02:34:55;29.00;;;12.48;;
11328;SDS011;5719;42.714;23.732;2023-12-20T02:37:22;30.20;;;13.05;;
11328;SDS011;5719;42.714;23.732;2023-12-20T02:39:51;34.00;;;13.15;;
11328;SDS011;5719;42.714;23.732;2023-12-20T02:42:19;30.27;;;12.90;;
11328;SDS011;5719;42.714;23.732;2023-12-20T02:44:46;30.70;;;12.70;;
11328;SDS011;5719;42.714;23.732;2023-12-20T02:47:12;28.27;;;13.00;;
11328;SDS011;5719;42.714;23.732;2023-12-20T02:49:39;27.58;;;12.20;;
11328;SDS011;5719;42.714;23.732;2023-12-20T02:52:06;32.22;;;13.30;;
11328;SDS011;5719;42.714;23.732;2023-12-20T02:54:33;24.55;;;11.85;;
11328;SDS011;5719;42.714;23.732;2023-12-20T02:57:01;27.35;;;12.90;;
11328;SDS011;5719;42.714;23.732;2023-12-20T02:59:28;25.90;;;11.38;;
11328;SDS011;5719;42.714;23.732;2023-12-20T03:01:55;24.17;;;11.20;;
11328;SDS011;5719;42.714;23.732;2023-12-20T03:04:21;21.45;;;10.30;;
11328;SDS011;5719;42.714;23.732;2023-12-20T03:06:48;20.92;;;10.55;;
11328;SDS011;5719;42.714;23.732;2023-12-20T03:09:15;20.27;;;10.00;;
11328;SDS011;5719;42.714;23.732;2023-12-20T03:11:42;24.55;;;11.20;;
11328;SDS011;5719;42.714;23.732;2023-12-20T03:14:10;23.92;;;11.70;;
11328;SDS011;5719;42.714;23.732;2023-12-20T03:16:37;31.30;;;11.57;;
11328;SDS011;5719;42.714;23.732;2023-12-20T03:19:03;26.30;;;11.27;;
11328;SDS011;5719;42.714;23.732;2023-12-20T03:21:30;27.92;;;12.57;;
11328;SDS011;5719;42.714;23.732;2023-12-20T03:23:57;25.75;;;12.05;;
11328;SDS011;5719;42.714;23.732;2023-12-20T03:26:24;24.50;;;10.93;;
11328;SDS011;5719;42.714;23.732;2023-12-20T03:28:50;24.83;;;10.73;;
11328;SDS011;5719;42.714;23.732;2023-12-20T03:31:19;22.63;;;10.95;;
11328;SDS011;5719;42.714;23.732;2023-12-20T03:33:46;28.80;;;11.13;;
11328;SDS011;5719;42.714;23.732;2023-12-20T03:36:12;25.17;;;10.90;;
11328;SDS011;5719;42.714;23.732;2023-12-20T03:38:39;28.65;;;11.88;;
11328;SDS011;5719;42.714;23.732;2023-12-20T03:41:06;30.65;;;11.50;;
11328;SDS011;5719;42.714;23.732;2023-12-20T03:43:33;26.40;;;10.68;;
11328;SDS011;5719;42.714;23.732;2023-12-20T03:46:00;30.67;;;12.20;;
11328;SDS011;5719;42.714;23.732;2023-12-20T03:48:30;35.55;;;12.45;;
11328;SDS011;5719;42.714;23.732;2023-12-20T03:50:57;33.22;;;13.98;;
11328;SDS011;5719;42.714;23.732;2023-12-20T03:53:23;31.58;;;13.68;;
11328;SDS011;5719;42.714;23.732;2023-12-20T03:55:50;37.33;;;14.27;;
11328;SDS011;5719;42.714;23.732;2023-12-20T03:58:17;32.08;;;14.98;;
11328;SDS011;5719;42.714;23.732;2023-12-20T04:00:44;32.42;;;14.05;;
11328;SDS011;5719;42.714;23.732;2023-12-20T04:03:10;36.47;;;13.27;;
11328;SDS011;5719;42.714;23.732;2023-12-20T04:05:39;29.92;;;13.18;;
11328;SDS011;5719;42.714;23.732;2023-12-20T04:08:07;33.15;;;12.45;;
11328;SDS011;5719;42.714;23.732;2023-12-20T04:10:34;27.33;;;11.35;;
11328;SDS011;5719;42.714;23.732;2023-12-20T04:13:02;32.55;;;12.82;;
11328;SDS011;5719;42.714;23.732;2023-12-20T04:15:29;28.25;;;11.27;;
11328;SDS011;5719;42.714;23.732;2023-12-20T04:17:56;24.77;;;11.55;;
11328;SDS011;5719;42.714;23.732;2023-12-20T04:20:23;33.17;;;11.55;;
11328;SDS011;5719;42.714;23.732;2023-12-20T04:22:51;29.83;;;11.98;;
11328;SDS011;5719;42.714;23.732;2023-12-20T04:25:18;33.28;;;11.60;;
11328;SDS011;5719;42.714;23.732;2023-12-20T04:27:44;39.13;;;14.27;;
11328;SDS011;5719;42.714;23.732;2023-12-20T04:30:11;42.25;;;15.43;;
11328;SDS011;5719;42.714;23.732;2023-12-20T04:32:38;52.78;;;15.30;;
11328;SDS011;5719;42.714;23.732;2023-12-20T04:35:05;39.25;;;14.82;;
11328;SDS011;5719;42.714;23.732;2023-12-20T04:37:33;40.75;;;15.93;;
11328;SDS011;5719;42.714;23.732;2023-12-20T04:40:01;51.42;;;19.77;;
11328;SDS011;5719;42.714;23.732;2023-12-20T04:42:30;57.30;;;21.10;;
11328;SDS011;5719;42.714;23.732;2023-12-20T04:44:57;47.67;;;19.73;;
11328;SDS011;5719;42.714;23.732;2023-12-20T04:47:24;53.70;;;20.05;;
11328;SDS011;5719;42.714;23.732;2023-12-20T04:49:50;47.65;;;19.95;;
11328;SDS011;5719;42.714;23.732;2023-12-20T04:52:19;47.17;;;18.80;;
11328;SDS011;5719;42.714;23.732;2023-12-20T04:54:46;46.63;;;17.27;;
11328;SDS011;5719;42.714;23.732;2023-12-20T04:57:14;39.90;;;16.75;;
11328;SDS011;5719;42.714;23.732;2023-12-20T04:59:41;43.17;;;16.30;;
11328;SDS011;5719;42.714;23.732;2023-12-20T05:02:07;42.83;;;16.20;;
11328;SDS011;5719;42.714;23.732;2023-12-20T05:04:34;43.20;;;15.88;;
11328;SDS011;5719;42.714;23.732;2023-12-20T05:07:01;41.45;;;16.83;;
11328;SDS011;5719;42.714;23.732;2023-12-20T05:09:29;49.08;;;16.05;;
11328;SDS011;5719;42.714;23.732;2023-12-20T05:11:56;48.47;;;15.63;;
11328;SDS011;5719;42.714;23.732;2023-12-20T05:14:24;49.38;;;16.80;;
11328;SDS011;5719;42.714;23.732;2023-12-20T05:16:51;48.30;;;16.95;;
11328;SDS011;5719;42.714;23.732;2023-12-20T05:19:18;63.05;;;19.48;;
11328;SDS011;5719;42.714;23.732;2023-12-20T05:21:45;65.82;;;19.98;;
11328;SDS011;5719;42.714;23.732;2023-12-20T05:24:11;55.03;;;18.00;;
11328;SDS011;5719;42.714;23.732;2023-12-20T05:26:38;58.60;;;18.67;;
11328;SDS011;5719;42.714;23.732;2023-12-20T05:29:05;62.00;;;19.02;;
11328;SDS011;5719;42.714;23.732;2023-12-20T05:31:33;72.45;;;20.73;;
11328;SDS011;5719;42.714;23.732;2023-12-20T05:34:00;54.42;;;18.23;;
11328;SDS011;5719;42.714;23.732;2023-12-20T05:36:27;59.38;;;19.40;;
11328;SDS011;5719;42.714;23.732;2023-12-20T05:38:53;75.18;;;23.25;;
11328;SDS011;5719;42.714;23.732;2023-12-20T05:41:20;79.72;;;25.45;;
11328;SDS011;5719;42.714;23.732;2023-12-20T05:43:48;64.75;;;23.13;;
11328;SDS011;5719;42.714;23.732;2023-12-20T05:46:14;62.65;;;23.42;;
11328;SDS011;5719;42.714;23.732;2023-12-20T05:48:42;67.75;;;23.65;;
11328;SDS011;5719;42.714;23.732;2023-12-20T05:51:11;53.95;;;20.00;;
11328;SDS011;5719;42.714;23.732;2023-12-20T05:53:38;58.63;;;21.63;;
11328;SDS011;5719;42.714;23.732;2023-12-20T05:56:05;61.00;;;20.08;;
11328;SDS011;5719;42.714;23.732;2023-12-20T05:58:32;49.17;;;18.40;;
11328;SDS011;5719;42.714;23.732;2023-12-20T06:00:59;57.63;;;19.23;;
11328;SDS011;5719;42.714;23.732;2023-12-20T06:03:26;44.10;;;17.45;;
11328;SDS011;5719;42.714;23.732;2023-12-20T06:05:54;43.97;;;18.38;;
11328;SDS011;5719;42.714;23.732;2023-12-20T06:08:21;39.88;;;14.73;;
11328;SDS011;5719;42.714;23.732;2023-12-20T06:10:48;34.35;;;13.50;;
11328;SDS011;5719;42.714;23.732;2023-12-20T06:13:15;32.38;;;12.65;;
11328;SDS011;5719;42.714;23.732;2023-12-20T06:15:41;27.38;;;12.48;;
11328;SDS011;5719;42.714;23.732;2023-12-20T06:18:08;26.83;;;13.43;;
11328;SDS011;5719;42.714;23.732;2023-12-20T06:20:35;32.83;;;12.60;;
11328;SDS011;5719;42.714;23.732;2023-12-20T06:23:03;31.50;;;12.98;;
11328;SDS011;5719;42.714;23.732;2023-12-20T06:25:30;28.52;;;12.77;;
11328;SDS011;5719;42.714;23.732;2023-12-20T06:27:57;30.35;;;14.27;;
11328;SDS011;5719;42.714;23.732;2023-12-20T06:30:24;32.05;;;14.40;;
11328;SDS011;5719;42.714;23.732;2023-12-20T06:32:52;33.25;;;14.73;;
11328;SDS011;5719;42.714;23.732;2023-12-20T06:35:19;44.05;;;15.98;;
11328;SDS011;5719;42.714;23.732;2023-12-20T06:37:46;48.45;;;17.85;;
11328;SDS011;5719;42.714;23.732;2023-12-20T06:40:15;46.40;;;17.08;;
11328;SDS011;5719;42.714;23.732;2023-12-20T06:42:42;45.25;;;16.63;;
11328;SDS011;5719;42.714;23.732;2023-12-20T06:45:09;45.63;;;16.48;;
11328;SDS011;5719;42.714;23.732;2023-12-20T06:47:37;36.00;;;14.80;;
11328;SDS011;5719;42.714;23.732;2023-12-20T06:50:04;38.75;;;14.73;;
11328;SDS011;5719;42.714;23.732;2023-12-20T06:52:33;40.25;;;15.57;;
11328;SDS011;5719;42.714;23.732;2023-12-20T06:55:00;42.90;;;15.18;;
11328;SDS011;5719;42.714;23.732;2023-12-20T06:57:28;30.98;;;13.73;;
11328;SDS011;5719;42.714;23.732;2023-12-20T06:59:56;31.88;;;13.25;;
11328;SDS011;5719;42.714;23.732;2023-12-20T07:02:23;33.42;;;13.63;;
11328;SDS011;5719;42.714;23.732;2023-12-20T07:04:49;31.65;;;13.20;;
11328;SDS011;5719;42.714;23.732;2023-12-20T07:07:16;28.42;;;13.02;;
11328;SDS011;5719;42.714;23.732;2023-12-20T07:09:43;26.38;;;13.32;;
11328;SDS011;5719;42.714;23.732;2023-12-20T07:12:10;33.60;;;13.50;;
11328;SDS011;5719;42.714;23.732;2023-12-20T07:14:38;32.85;;;14.38;;
11328;SDS011;5719;42.714;23.732;2023-12-20T07:17:05;32.22;;;12.95;;
11328;SDS011;5719;42.714;23.732;2023-12-20T07:19:36;69.35;;;25.52;;
11328;SDS011;5719;42.714;23.732;2023-12-20T07:22:03;41.78;;;18.58;;
11328;SDS011;5719;42.714;23.732;2023-12-20T07:24:30;38.17;;;17.38;;
11328;SDS011;5719;42.714;23.732;2023-12-20T07:26:57;34.00;;;14.45;;
11328;SDS011;5719;42.714;23.732;2023-12-20T07:29:23;29.60;;;13.48;;
11328;SDS011;5719;42.714;23.732;2023-12-20T07:31:52;31.63;;;13.98;;
11328;SDS011;5719;42.714;23.732;2023-12-20T07:34:19;26.15;;;12.23;;
11328;SDS011;5719;42.714;23.732;2023-12-20T07:36:46;27.45;;;13.52;;
11328;SDS011;5719;42.714;23.732;2023-12-20T07:39:13;29.65;;;13.23;;
11328;SDS011;5719;42.714;23.732;2023-12-20T07:41:40;24.20;;;11.68;;
11328;SDS011;5719;42.714;23.732;2023-12-20T07:44:07;25.60;;;12.00;;
11328;SDS011;5719;42.714;23.732;2023-12-20T07:46:34;22.52;;;11.75;;
11328;SDS011;5719;42.714;23.732;2023-12-20T07:49:02;24.27;;;12.48;;
11328;SDS011;5719;42.714;23.732;2023-12-20T07:51:29;25.05;;;11.85;;
11328;SDS011;5719;42.714;23.732;2023-12-20T07:53:56;23.88;;;12.38;;
11328;SDS011;5719;42.714;23.732;2023-12-20T07:56:22;24.58;;;12.65;;
11328;SDS011;5719;42.714;23.732;2023-12-20T07:58:49;25.92;;;13.45;;
11328;SDS011;5719;42.714;23.732;2023-12-20T08:01:16;29.52;;;14.68;;
11328;SDS011;5719;42.714;23.732;2023-12-20T08:03:43;27.98;;;13.05;;
11328;SDS011;5719;42.714;23.732;2023-12-20T08:06:13;25.70;;;11.73;;
11328;SDS011;5719;42.714;23.732;2023-12-20T08:08:39;27.73;;;12.35;;
11328;SDS011;5719;42.714;23.732;2023-12-20T08:11:06;21.50;;;12.32;;
11328;SDS011;5719;42.714;23.732;2023-12-20T08:13:33;23.60;;;12.38;;
11328;SDS011;5719;42.714;23.732;2023-12-20T08:15:59;28.48;;;12.32;;
11328;SDS011;5719;42.714;23.732;2023-12-20T08:18:28;25.33;;;12.35;;
11328;SDS011;5719;42.714;23.732;2023-12-20T08:20:55;26.42;;;12.85;;
11328;SDS011;5719;42.714;23.732;2023-12-20T08:23:23;23.65;;;11.93;;
11328;SDS011;5719;42.714;23.732;2023-12-20T08:25:49;21.60;;;11.57;;
11328;SDS011;5719;42.714;23.732;2023-12-20T08:28:16;27.05;;;12.57;;
11328;SDS011;5719;42.714;23.732;2023-12-20T08:30:43;28.17;;;11.88;;
11328;SDS011;5719;42.714;23.732;2023-12-20T08:33:10;29.67;;;13.82;;
11328;SDS011;5719;42.714;23.732;2023-12-20T08:35:38;32.88;;;13.50;;
11328;SDS011;5719;42.714;23.732;2023-12-20T08:38:05;26.92;;;13.18;;
11328;SDS011;5719;42.714;23.732;2023-12-20T08:40:33;26.10;;;12.05;;
11328;SDS011;5719;42.714;23.732;2023-12-20T08:43:00;26.73;;;12.93;;
11328;SDS011;5719;42.714;23.732;2023-12-20T08:45:27;26.02;;;12.18;;
11328;SDS011;5719;42.714;23.732;2023-12-20T08:47:54;28.90;;;12.50;;
11328;SDS011;5719;42.714;23.732;2023-12-20T08:50:21;25.67;;;12.95;;
11328;SDS011;5719;42.714;23.732;2023-12-20T08:52:48;29.02;;;13.27;;
11328;SDS011;5719;42.714;23.732;2023-12-20T08:55:15;29.75;;;14.10;;
11328;SDS011;5719;42.714;23.732;2023-12-20T08:57:44;33.33;;;14.18;;
11328;SDS011;5719;42.714;23.732;2023-12-20T09:00:11;40.47;;;14.70;;
11328;SDS011;5719;42.714;23.732;2023-12-20T09:02:39;36.13;;;13.80;;
11328;SDS011;5719;42.714;23.732;2023-12-20T09:05:06;41.28;;;13.35;;
11328;SDS011;5719;42.714;23.732;2023-12-20T09:07:33;42.85;;;13.13;;
11328;SDS011;5719;42.714;23.732;2023-12-20T09:10:00;29.20;;;13.77;;
11328;SDS011;5719;42.714;23.732;2023-12-20T09:12:27;31.10;;;12.77;;
11328;SDS011;5719;42.714;23.732;2023-12-20T09:14:55;34.67;;;13.00;;
11328;SDS011;5719;42.714;23.732;2023-12-20T09:17:22;28.35;;;13.23;;
11328;SDS011;5719;42.714;23.732;2023-12-20T09:19:49;25.10;;;12.35;;
11328;SDS011;5719;42.714;23.732;2023-12-20T09:22:17;23.60;;;12.02;;
11328;SDS011;5719;42.714;23.732;2023-12-20T09:24:44;33.25;;;13.52;;
11328;SDS011;5719;42.714;23.732;2023-12-20T09:27:11;31.35;;;13.77;;
11328;SDS011;5719;42.714;23.732;2023-12-20T09:29:38;26.92;;;13.23;;
11328;SDS011;5719;42.714;23.732;2023-12-20T09:32:06;32.63;;;13.45;;
11328;SDS011;5719;42.714;23.732;2023-12-20T09:34:33;32.63;;;14.80;;
11328;SDS011;5719;42.714;23.732;2023-12-20T09:37:00;32.47;;;15.27;;
11328;SDS011;5719;42.714;23.732;2023-12-20T09:39:28;36.13;;;16.60;;
11328;SDS011;5719;42.714;23.732;2023-12-20T09:41:59;40.15;;;18.05;;
11328;SDS011;5719;42.714;23.732;2023-12-20T09:44:27;40.75;;;19.02;;
11328;SDS011;5719;42.714;23.732;2023-12-20T09:46:55;45.85;;;19.30;;
11328;SDS011;5719;42.714;23.732;2023-12-20T09:49:23;46.85;;;19.10;;
11328;SDS011;5719;42.714;23.732;2023-12-20T09:51:53;48.05;;;17.33;;
11328;SDS011;5719;42.714;23.732;2023-12-20T09:54:21;46.00;;;15.20;;
11328;SDS011;5719;42.714;23.732;2023-12-20T09:56:48;39.05;;;15.65;;
11328;SDS011;5719;42.714;23.732;2023-12-20T09:59:15;31.52;;;14.63;;
11328;SDS011;5719;42.714;23.732;2023-12-20T10:01:42;34.65;;;14.65;;
11328;SDS011;5719;42.714;23.732;2023-12-20T10:04:09;28.73;;;13.85;;
11328;SDS011;5719;42.714;23.732;2023-12-20T10:09:46;29.05;;;14.48;;
11328;SDS011;5719;42.714;23.732;2023-12-20T10:12:14;31.92;;;15.73;;
11328;SDS011;5719;42.714;23.732;2023-12-20T10:14:41;28.58;;;15.00;;
11328;SDS011;5719;42.714;23.732;2023-12-20T10:17:08;29.23;;;16.25;;
11328;SDS011;5719;42.714;23.732;2023-12-20T10:19:35;31.10;;;16.33;;
11328;SDS011;5719;42.714;23.732;2023-12-20T10:22:04;32.53;;;15.70;;
11328;SDS011;5719;42.714;23.732;2023-12-20T10:24:31;32.42;;;16.95;;
11328;SDS011;5719;42.714;23.732;2023-12-20T10:27:03;42.22;;;17.08;;
11328;SDS011;5719;42.714;23.732;2023-12-20T10:29:33;32.75;;;17.13;;
11328;SDS011;5719;42.714;23.732;2023-12-20T10:32:12;36.58;;;17.02;;
11328;SDS011;5719;42.714;23.732;2023-12-20T10:34:48;30.75;;;15.63;;
11328;SDS011;5719;42.714;23.732;2023-12-20T10:37:15;32.22;;;17.15;;
11328;SDS011;5719;42.714;23.732;2023-12-20T10:46:27;28.60;;;15.50;;
11328;SDS011;5719;42.714;23.732;2023-12-20T10:48:55;29.52;;;15.85;;
11328;SDS011;5719;42.714;23.732;2023-12-20T10:51:23;29.23;;;15.88;;
11328;SDS011;5719;42.714;23.732;2023-12-20T10:53:52;29.17;;;16.13;;
11328;SDS011;5719;42.714;23.732;2023-12-20T10:56:19;24.30;;;14.60;;
11328;SDS011;5719;42.714;23.732;2023-12-20T10:58:48;23.27;;;13.73;;
11328;SDS011;5719;42.714;23.732;2023-12-20T11:01:16;25.15;;;14.77;;
11328;SDS011;5719;42.714;23.732;2023-12-20T11:03:47;24.30;;;13.50;;
11328;SDS011;5719;42.714;23.732;2023-12-20T11:06:20;20.73;;;12.80;;
11328;SDS011;5719;42.714;23.732;2023-12-20T11:08:58;21.90;;;13.25;;
11328;SDS011;5719;42.714;23.732;2023-12-20T11:11:40;18.92;;;11.82;;
11328;SDS011;5719;42.714;23.732;2023-12-20T11:14:18;20.15;;;12.13;;
11328;SDS011;5719;42.714;23.732;2023-12-20T11:16:50;18.02;;;11.63;;
11328;SDS011;5719;42.714;23.732;2023-12-20T11:19:18;18.55;;;11.70;;
11328;SDS011;5719;42.714;23.732;2023-12-20T11:25:09;19.30;;;11.50;;
11328;SDS011;5719;42.714;23.732;2023-12-20T11:27:37;17.90;;;11.30;;
11328;SDS011;5719;42.714;23.732;2023-12-20T11:30:08;23.27;;;14.05;;
11328;SDS011;5719;42.714;23.732;2023-12-20T11:32:35;32.22;;;19.88;;
11328;SDS011;5719;42.714;23.732;2023-12-20T11:35:18;40.05;;;24.13;;
11328;SDS011;5719;42.714;23.732;2023-12-20T11:37:46;40.10;;;23.25;;
11328;SDS011;5719;42.714;23.732;2023-12-20T11:40:14;45.75;;;24.73;;
11328;SDS011;5719;42.714;23.732;2023-12-20T11:42:44;51.35;;;28.33;;
11328;SDS011;5719;42.714;23.732;2023-12-20T11:45:11;52.03;;;29.33;;
11328;SDS011;5719;42.714;23.732;2023-12-20T11:47:40;48.47;;;27.60;;
11328;SDS011;5719;42.714;23.732;2023-12-20T11:50:08;55.42;;;28.58;;
11328;SDS011;5719;42.714;23.732;2023-12-20T11:52:38;49.35;;;27.10;;
11328;SDS011;5719;42.714;23.732;2023-12-20T11:55:05;52.67;;;28.05;;
11328;SDS011;5719;42.714;23.732;2023-12-20T11:57:33;49.50;;;27.75;;
11328;SDS011;5719;42.714;23.732;2023-12-20T12:00:00;43.47;;;25.80;;
11328;SDS011;5719;42.714;23.732;2023-12-20T12:02:28;46.97;;;25.30;;
11328;SDS011;5719;42.714;23.732;2023-12-20T12:04:55;46.78;;;26.65;;
11328;SDS011;5719;42.714;23.732;2023-12-20T12:07:23;43.35;;;24.95;;
11328;SDS011;5719;42.714;23.732;2023-12-20T12:09:52;45.13;;;23.65;;
11328;SDS011;5719;42.714;23.732;2023-12-20T12:12:19;45.90;;;24.85;;
11328;SDS011;5719;42.714;23.732;2023-12-20T12:14:46;45.10;;;25.10;;
11328;SDS011;5719;42.714;23.732;2023-12-20T12:17:13;43.67;;;25.55;;
11328;SDS011;5719;42.714;23.732;2023-12-20T12:19:41;44.60;;;25.30;;
11328;SDS011;5719;42.714;23.732;2023-12-20T12:22:09;41.85;;;24.67;;
11328;SDS011;5719;42.714;23.732;2023-12-20T12:24:38;40.35;;;23.33;;
11328;SDS011;5719;42.714;23.732;2023-12-20T12:27:07;41.22;;;24.73;;
11328;SDS011;5719;42.714;23.732;2023-12-20T12:29:35;42.42;;;24.75;;
11328;SDS011;5719;42.714;23.732;2023-12-20T12:32:04;37.45;;;23.00;;
11328;SDS011;5719;42.714;23.732;2023-12-20T12:37:54;41.80;;;23.67;;
11328;SDS011;5719;42.714;23.732;2023-12-20T12:40:21;39.67;;;24.55;;
11328;SDS011;5719;42.714;23.732;2023-12-20T12:42:50;38.05;;;23.70;;
11328;SDS011;5719;42.714;23.732;2023-12-20T12:45:17;37.63;;;22.77;;
11328;SDS011;5719;42.714;23.732;2023-12-20T12:47:44;37.83;;;21.70;;
11328;SDS011;5719;42.714;23.732;2023-12-20T12:57:33;48.65;;;26.00;;
11328;SDS011;5719;42.714;23.732;2023-12-20T13:00:02;43.42;;;25.83;;
11328;SDS011;5719;42.714;23.732;2023-12-20T13:02:31;41.95;;;24.65;;
11328;SDS011;5719;42.714;23.732;2023-12-20T13:04:58;39.38;;;24.30;;
11328;SDS011;5719;42.714;23.732;2023-12-20T13:07:26;39.95;;;24.05;;
11328;SDS011;5719;42.714;23.732;2023-12-20T13:09:53;36.85;;;22.33;;
11328;SDS011;5719;42.714;23.732;2023-12-20T13:12:20;39.65;;;24.17;;
11328;SDS011;5719;42.714;23.732;2023-12-20T13:24:55;41.35;;;22.77;;
11328;SDS011;5719;42.714;23.732;2023-12-20T13:27:22;42.13;;;22.95;;
11328;SDS011;5719;42.714;23.732;2023-12-20T13:29:49;39.25;;;22.80;;
11328;SDS011;5719;42.714;23.732;2023-12-20T13:32:16;43.40;;;24.83;;
11328;SDS011;5719;42.714;23.732;2023-12-20T13:34:45;41.05;;;24.02;;
11328;SDS011;5719;42.714;23.732;2023-12-20T13:37:12;40.38;;;23.10;;
11328;SDS011;5719;42.714;23.732;2023-12-20T13:39:39;41.67;;;24.08;;
11328;SDS011;5719;42.714;23.732;2023-12-20T13:42:08;36.10;;;21.55;;
11328;SDS011;5719;42.714;23.732;2023-12-20T13:48:05;35.60;;;22.20;;
11328;SDS011;5719;42.714;23.732;2023-12-20T13:50:33;34.50;;;21.27;;
11328;SDS011;5719;42.714;23.732;2023-12-20T13:53:00;36.05;;;21.02;;
11328;SDS011;5719;42.714;23.732;2023-12-20T13:55:29;34.75;;;20.55;;
11328;SDS011;5719;42.714;23.732;2023-12-20T13:57:57;38.50;;;21.88;;
11328;SDS011;5719;42.714;23.732;2023-12-20T14:00:24;37.95;;;21.45;;
11328;SDS011;5719;42.714;23.732;2023-12-20T14:02:51;35.47;;;21.73;;
11328;SDS011;5719;42.714;23.732;2023-12-20T14:05:18;39.90;;;23.27;;
11328;SDS011;5719;42.714;23.732;2023-12-20T14:07:48;37.25;;;22.20;;
11328;SDS011;5719;42.714;23.732;2023-12-20T14:10:15;36.42;;;22.33;;
11328;SDS011;5719;42.714;23.732;2023-12-20T14:12:42;35.90;;;22.02;;
11328;SDS011;5719;42.714;23.732;2023-12-20T14:15:11;39.53;;;22.65;;
11328;SDS011;5719;42.714;23.732;2023-12-20T14:17:38;39.63;;;23.08;;
11328;SDS011;5719;42.714;23.732;2023-12-20T14:20:08;38.40;;;22.98;;
11328;SDS011;5719;42.714;23.732;2023-12-20T14:22:37;42.13;;;25.40;;
11328;SDS011;5719;42.714;23.732;2023-12-20T14:25:10;40.83;;;24.15;;
11328;SDS011;5719;42.714;23.732;2023-12-20T14:27:37;40.20;;;24.42;;
11328;SDS011;5719;42.714;23.732;2023-12-20T14:30:04;41.00;;;24.08;;
11328;SDS011;5719;42.714;23.732;2023-12-20T14:32:35;40.97;;;23.15;;
11328;SDS011;5719;42.714;23.732;2023-12-20T14:35:04;42.60;;;25.02;;
11328;SDS011;5719;42.714;23.732;2023-12-20T14:37:31;46.03;;;25.45;;
11328;SDS011;5719;42.714;23.732;2023-12-20T14:39:58;45.92;;;27.20;;
11328;SDS011;5719;42.714;23.732;2023-12-20T14:42:25;47.67;;;26.10;;
11328;SDS011;5719;42.714;23.732;2023-12-20T14:44:52;45.13;;;25.60;;
11328;SDS011;5719;42.714;23.732;2023-12-20T14:47:19;55.58;;;27.10;;
11328;SDS011;5719;42.714;23.732;2023-12-20T14:49:48;49.17;;;25.40;;
11328;SDS011;5719;42.714;23.732;2023-12-20T14:52:15;48.72;;;26.02;;
11328;SDS011;5719;42.714;23.732;2023-12-20T14:54:44;48.60;;;25.45;;
11328;SDS011;5719;42.714;23.732;2023-12-20T14:57:11;47.28;;;25.15;;
11328;SDS011;5719;42.714;23.732;2023-12-20T14:59:38;43.45;;;25.15;;